createdAt,value
2022-09-17T00:01:34.843Z,99819.56
2022-09-17T00:04:05.438Z,99830.88
2022-09-17T00:06:36.666Z,99827.38
2022-09-17T00:09:07.256Z,99824.75
2022-09-17T00:11:41.247Z,99825.53
2022-09-17T00:14:14.106Z,99822.91
2022-09-17T00:16:43.991Z,99815.88
2022-09-17T00:19:15.692Z,99824.66
2022-09-17T00:21:45.607Z,99828.09
2022-09-17T00:24:15.831Z,99821.09
2022-09-17T00:26:44.272Z,99817.63
2022-09-17T00:29:12.572Z,99825.47
2022-09-17T00:31:41.659Z,99826.34
2022-09-17T00:34:12.140Z,99833.38
2022-09-17T00:36:41.156Z,99829.91
2022-09-17T00:39:12.810Z,99832.56
2022-09-17T00:41:41.111Z,99838.69
2022-09-17T00:44:42.782Z,99834.31
2022-09-17T00:47:16.656Z,99841.25
2022-09-17T00:49:45.609Z,99842.06
2022-09-17T00:52:16.993Z,99833.31
2022-09-17T00:54:53.945Z,99829.81
2022-09-17T00:57:22.355Z,99840.31
2022-09-17T00:59:50.739Z,99837.69
2022-09-17T01:02:19.992Z,99830.72
2022-09-17T01:04:48.320Z,99823.66
2022-09-17T01:07:29.395Z,99837.59
2022-09-17T01:10:04.249Z,99829.72
2022-09-17T01:12:42.497Z,99836.66
2022-09-17T01:15:23.013Z,99836.59
2022-09-17T01:18:03.185Z,99841.75
2022-09-17T01:21:04.542Z,99838.22
2022-09-17T01:23:58.892Z,99852.19
2022-09-17T01:26:54.705Z,99848.69
2022-09-17T01:29:36.585Z,99846.00
2022-09-17T01:32:10.937Z,99841.63
2022-09-17T01:34:46.981Z,99841.63
2022-09-17T01:37:19.949Z,99839.84
2022-09-17T01:39:54.093Z,99841.63
2022-09-17T01:42:26.959Z,99847.72
2022-09-17T01:45:02.632Z,99852.06
2022-09-17T01:47:35.587Z,99846.72
2022-09-17T01:50:09.341Z,99851.97
2022-09-17T01:52:41.638Z,99851.94
2022-09-17T01:55:14.955Z,99849.28
2022-09-17T01:57:49.278Z,99844.03
2022-09-17T02:00:18.593Z,99844.88
2022-09-17T02:02:53.103Z,99850.97
2022-09-17T02:05:25.802Z,99852.72
2022-09-17T02:07:58.355Z,99854.47
2022-09-17T02:10:32.327Z,99855.31
2022-09-17T02:13:04.551Z,99857.91
2022-09-17T02:15:38.247Z,99862.28
2022-09-17T02:18:11.684Z,99854.41
2022-09-17T02:20:45.859Z,99857.94
2022-09-17T02:23:17.699Z,99859.66
2022-09-17T02:25:51.527Z,99863.13
2022-09-17T02:28:26.968Z,99864.00
2022-09-17T02:30:55.617Z,99867.56
2022-09-17T02:33:26.126Z,99864.94
2022-09-17T02:35:54.547Z,99865.78
2022-09-17T02:38:25.531Z,99862.31
2022-09-17T02:41:03.279Z,99861.44
2022-09-17T02:43:39.593Z,99855.38
2022-09-17T02:46:25.598Z,99861.44
2022-09-17T02:49:22.669Z,99853.59
2022-09-17T02:52:01.745Z,99857.09
2022-09-17T02:54:36.554Z,99862.31
2022-09-17T02:57:14.569Z,99869.28
2022-09-17T02:59:53.107Z,99869.31
2022-09-17T03:02:26.271Z,99872.78
2022-09-17T03:04:57.063Z,99876.25
2022-09-17T03:07:27.171Z,99870.13
2022-09-17T03:09:55.522Z,99876.25
2022-09-17T03:12:24.463Z,99871.81
2022-09-17T03:14:52.738Z,99877.91
2022-09-17T03:17:20.998Z,99869.19
2022-09-17T03:19:49.332Z,99874.41
2022-09-17T03:22:19.029Z,99876.09
2022-09-17T03:24:47.275Z,99871.75
2022-09-17T03:27:15.729Z,99875.25
2022-09-17T03:29:44.440Z,99872.63
2022-09-17T03:32:12.694Z,99866.53
2022-09-17T03:34:40.955Z,99866.56
2022-09-17T03:37:09.199Z,99868.31
2022-09-17T03:39:38.876Z,99865.69
2022-09-17T03:42:07.565Z,99866.56
2022-09-17T03:44:35.815Z,99872.69
2022-09-17T03:47:04.154Z,99877.03
2022-09-17T03:49:32.421Z,99882.28
2022-09-17T03:52:00.707Z,99878.84
2022-09-17T03:54:28.973Z,99877.97
2022-09-17T03:56:58.629Z,99878.03
2022-09-17T03:59:27.264Z,99878.03
2022-09-17T04:01:55.630Z,99878.91
2022-09-17T04:04:24.084Z,99880.69
2022-09-17T04:06:52.321Z,99885.09
2022-09-17T04:09:20.595Z,99882.50
2022-09-17T04:11:48.826Z,99877.25
2022-09-17T04:14:18.494Z,99882.50
2022-09-17T04:16:46.774Z,99892.16
2022-09-17T04:19:15.062Z,99893.94
2022-09-17T04:21:43.346Z,99888.72
2022-09-17T04:24:11.624Z,99900.06
2022-09-17T04:26:39.930Z,99900.94
2022-09-17T04:29:08.387Z,99904.41
2022-09-17T04:31:38.074Z,99900.06
2022-09-17T04:34:06.566Z,99893.94
2022-09-17T04:36:34.826Z,99893.03
2022-09-17T04:39:03.113Z,99891.22
2022-09-17T04:41:31.397Z,99897.38
2022-09-17T04:43:59.643Z,99900.88
2022-09-17T04:46:28.028Z,99907.84
2022-09-17T04:48:57.789Z,99902.53
2022-09-17T04:51:26.078Z,99911.28
2022-09-17T04:53:54.424Z,99913.00
2022-09-17T04:56:22.658Z,99912.13
2022-09-17T04:58:50.890Z,99913.84
2022-09-17T05:01:19.615Z,99909.50
2022-09-17T05:03:47.997Z,99894.66
2022-09-17T05:06:17.615Z,99903.38
2022-09-17T05:08:45.885Z,99903.44
2022-09-17T05:11:14.734Z,99902.50
2022-09-17T05:13:43.050Z,99914.66
2022-09-17T05:16:11.840Z,99912.91
2022-09-17T05:18:40.189Z,99913.69
2022-09-17T05:21:08.571Z,99927.66
2022-09-17T05:23:38.208Z,99911.88
2022-09-17T05:26:06.562Z,99930.16
2022-09-17T05:28:35.047Z,99926.59
2022-09-17T05:31:03.614Z,99930.97
2022-09-17T05:33:31.893Z,99932.66
2022-09-17T05:36:00.294Z,99938.69
2022-09-17T05:38:28.761Z,99936.94
2022-09-17T05:40:58.404Z,99945.66
2022-09-17T05:43:26.671Z,99954.31
2022-09-17T05:45:54.934Z,99957.00
2022-09-17T05:48:23.192Z,99954.31
2022-09-17T05:50:51.447Z,99960.44
2022-09-17T05:53:19.713Z,99961.34
2022-09-17T05:55:48.052Z,99957.00
2022-09-17T05:58:19.368Z,99952.72
2022-09-17T06:00:48.736Z,99963.19
2022-09-17T06:03:19.230Z,99968.41
2022-09-17T06:05:54.686Z,99973.66
2022-09-17T06:08:23.497Z,99974.56
2022-09-17T06:10:51.753Z,99964.97
2022-09-17T06:13:22.461Z,99964.06
2022-09-17T06:15:52.199Z,99967.59
2022-09-17T06:18:21.560Z,99971.09
2022-09-17T06:20:56.517Z,99969.34
2022-09-17T06:23:25.163Z,99971.97
2022-09-17T06:25:55.468Z,99976.34
2022-09-17T06:28:25.630Z,99978.06
2022-09-17T06:30:54.593Z,99979.75
2022-09-17T06:33:23.539Z,99985.91
2022-09-17T06:35:57.750Z,99980.66
2022-09-17T06:38:26.037Z,99980.66
2022-09-17T06:40:54.722Z,99983.22
2022-09-17T06:43:23.596Z,99991.09
2022-09-17T06:45:57.781Z,99985.81
2022-09-17T06:48:27.338Z,99998.88
2022-09-17T06:50:56.218Z,100000.69
2022-09-17T06:53:25.665Z,99991.94
2022-09-17T06:55:53.893Z,99995.47
2022-09-17T06:58:22.182Z,99993.75
2022-09-17T07:00:50.491Z,100009.53
2022-09-17T07:03:23.436Z,100001.75
2022-09-17T07:05:51.799Z,100011.41
2022-09-17T07:08:20.105Z,100008.84
2022-09-17T07:10:50.205Z,100009.78
2022-09-17T07:13:18.783Z,100004.59
2022-09-17T07:15:53.712Z,99998.50
2022-09-17T07:18:23.669Z,100003.81
2022-09-17T07:20:56.026Z,99995.13
2022-09-17T07:23:25.520Z,100001.31
2022-09-17T07:25:54.664Z,100001.38
2022-09-17T07:28:23.891Z,99997.09
2022-09-17T07:30:53.083Z,100011.13
2022-09-17T07:33:24.987Z,99995.47
2022-09-17T07:35:54.548Z,99992.00
2022-09-17T07:38:23.696Z,99992.94
2022-09-17T07:40:59.857Z,100003.50
2022-09-17T07:43:30.193Z,99992.22
2022-09-17T07:45:59.852Z,99989.72
2022-09-17T07:48:30.231Z,99991.56
2022-09-17T07:50:59.136Z,99996.88
2022-09-17T07:53:28.043Z,99996.13
2022-09-17T07:55:57.977Z,99988.31
2022-09-17T07:58:31.088Z,99988.38
2022-09-17T08:01:03.147Z,99986.72
2022-09-17T08:03:33.354Z,99997.31
2022-09-17T08:06:05.619Z,99998.28
2022-09-17T08:08:35.741Z,100002.78
2022-09-17T08:11:04.353Z,99995.06
2022-09-17T08:13:33.485Z,99995.22
2022-09-17T08:16:02.599Z,99989.22
2022-09-17T08:18:32.935Z,99988.50
2022-09-17T08:21:03.426Z,99992.19
2022-09-17T08:23:32.911Z,99994.09
2022-09-17T08:26:01.286Z,99989.84
2022-09-17T08:28:32.158Z,99998.75
2022-09-17T08:31:02.816Z,99989.25
2022-09-17T08:33:33.610Z,99991.09
2022-09-17T08:36:02.319Z,100001.69
2022-09-17T08:38:37.696Z,99992.16
2022-09-17T08:41:24.197Z,99994.88
2022-09-17T08:44:03.049Z,99988.84
2022-09-17T08:46:34.546Z,100000.28
2022-09-17T08:49:15.314Z,99989.91
2022-09-17T08:51:54.802Z,100004.06
2022-09-17T08:54:31.907Z,99996.31
2022-09-17T08:57:14.330Z,100004.25
2022-09-17T08:59:50.699Z,100000.84
2022-09-17T09:02:33.609Z,99997.38
2022-09-17T09:05:13.281Z,100008.84
2022-09-17T09:07:47.582Z,99994.94
2022-09-17T09:10:22.363Z,100001.16
2022-09-17T09:12:52.792Z,99992.53
2022-09-17T09:15:38.149Z,99991.72
2022-09-17T09:18:19.046Z,99991.81
2022-09-17T09:20:53.515Z,99989.31
2022-09-17T09:23:30.381Z,99998.25
2022-09-17T09:26:11.066Z,99998.34
2022-09-17T09:29:03.281Z,99994.97
2022-09-17T09:31:46.904Z,99996.78
2022-09-17T09:34:16.133Z,99984.56
2022-09-17T09:36:46.862Z,99988.06
2022-09-17T09:39:20.247Z,99989.88
2022-09-17T09:41:54.202Z,99988.22
2022-09-17T09:44:25.813Z,99985.72
2022-09-17T09:47:19.579Z,99990.19
2022-09-17T09:50:01.899Z,99979.72
2022-09-17T09:52:45.711Z,99980.69
2022-09-17T09:55:31.438Z,99978.09
2022-09-17T09:58:07.954Z,99983.34
2022-09-17T10:00:39.323Z,99980.72
2022-09-17T10:03:14.131Z,99979.84
2022-09-17T10:05:54.305Z,99980.75
2022-09-17T10:08:24.369Z,99988.63
2022-09-17T10:10:58.122Z,99980.69
2022-09-17T10:13:27.526Z,99978.03
2022-09-17T10:15:56.140Z,99972.81
2022-09-17T10:18:25.935Z,99971.03
2022-09-17T10:20:59.388Z,99965.88
2022-09-17T10:23:31.685Z,99962.47
2022-09-17T10:26:00.126Z,99958.16
2022-09-17T10:28:44.242Z,99959.09
2022-09-17T10:31:12.701Z,99958.22
2022-09-17T10:33:53.544Z,99964.38
2022-09-17T10:36:39.520Z,99953.81
2022-09-17T10:39:32.690Z,99948.59
2022-09-17T10:42:02.935Z,99952.16
2022-09-17T10:44:33.062Z,99948.66
2022-09-17T10:47:07.272Z,99963.59
2022-09-17T10:49:44.964Z,99967.97
2022-09-17T10:52:24.884Z,99966.16
2022-09-17T10:55:13.526Z,99959.03
2022-09-17T10:58:04.531Z,99950.22
2022-09-17T11:00:45.145Z,99953.72
2022-09-17T11:03:56.770Z,99947.63
2022-09-17T11:06:46.635Z,99943.34
2022-09-17T11:09:25.727Z,99952.16
2022-09-17T11:12:13.542Z,99960.00
2022-09-17T11:14:55.691Z,99956.34
2022-09-17T11:17:40.542Z,99958.03
2022-09-17T11:20:22.242Z,99949.16
2022-09-17T11:23:00.004Z,99940.31
2022-09-17T11:25:46.326Z,99929.84
2022-09-17T11:28:35.995Z,99921.22
2022-09-17T11:31:23.203Z,99915.19
2022-09-17T11:34:16.051Z,99919.69
2022-09-17T11:36:54.893Z,99935.50
2022-09-17T11:39:26.858Z,99947.75
2022-09-17T11:41:59.272Z,99974.84
2022-09-17T11:44:33.232Z,99986.13
2022-09-17T11:47:10.158Z,100014.06
2022-09-17T11:49:44.665Z,100018.22
2022-09-17T11:52:18.470Z,100025.84
2022-09-17T11:54:53.843Z,100023.00
2022-09-17T11:57:26.882Z,100024.59
2022-09-17T12:00:04.116Z,100008.69
2022-09-17T12:02:50.942Z,100015.59
2022-09-17T12:05:23.721Z,100012.00
2022-09-17T12:07:57.694Z,100015.44
2022-09-17T12:10:38.008Z,100005.78
2022-09-17T12:13:18.187Z,99992.56
2022-09-17T12:15:53.533Z,100003.97
2022-09-17T12:18:34.076Z,100003.06
2022-09-17T12:21:06.015Z,100007.47
2022-09-17T12:23:39.320Z,100008.31
2022-09-17T12:26:19.090Z,100010.91
2022-09-17T12:28:57.500Z,100015.25
2022-09-17T12:31:35.999Z,100005.53
2022-09-17T12:34:27.244Z,100011.47
2022-09-17T12:37:05.854Z,100015.69
2022-09-17T12:39:59.525Z,100009.38
2022-09-17T12:42:49.337Z,100004.88
2022-09-17T12:45:27.549Z,100002.13
2022-09-17T12:48:12.171Z,99994.13
2022-09-17T12:50:53.003Z,99984.44
2022-09-17T12:53:29.345Z,99988.13
2022-09-17T12:56:06.482Z,99984.97
2022-09-17T12:58:50.547Z,99983.56
2022-09-17T13:01:26.712Z,99969.88
2022-09-17T13:04:05.630Z,99977.22
2022-09-17T13:07:07.543Z,99968.69
2022-09-17T13:10:01.657Z,99956.72
2022-09-17T13:12:37.205Z,99954.31
2022-09-17T13:15:48.135Z,99945.72
2022-09-17T13:18:27.064Z,99944.97
2022-09-17T13:21:05.462Z,99936.38
2022-09-17T13:23:38.534Z,99928.66
2022-09-17T13:26:08.119Z,99929.63
2022-09-17T13:28:47.530Z,99925.28
2022-09-17T13:31:22.756Z,99926.25
2022-09-17T13:33:56.652Z,99925.47
2022-09-17T13:36:48.971Z,99931.72
2022-09-17T13:39:43.713Z,99929.16
2022-09-17T13:42:19.921Z,99922.22
2022-09-17T13:44:55.159Z,99922.28
2022-09-17T13:47:30.821Z,99917.91
2022-09-17T13:50:03.846Z,99913.50
2022-09-17T13:52:41.559Z,99916.16
2022-09-17T13:55:31.545Z,99909.09
2022-09-17T13:58:01.903Z,99931.13
2022-09-17T14:00:52.256Z,99981.34
2022-09-17T14:03:52.965Z,100013.00
2022-09-17T14:06:53.276Z,100007.56
2022-09-17T14:09:51.267Z,99996.69
2022-09-17T14:12:55.128Z,99998.09
2022-09-17T14:15:39.327Z,99992.38
2022-09-17T14:18:39.040Z,100002.59
2022-09-17T14:21:15.490Z,99992.69
2022-09-17T14:23:46.088Z,99990.78
2022-09-17T14:26:26.064Z,99988.03
2022-09-17T14:29:04.924Z,99990.59
2022-09-17T14:31:37.695Z,99993.09
2022-09-17T14:34:07.074Z,99981.59
2022-09-17T14:36:40.103Z,99975.25
2022-09-17T14:39:16.468Z,99975.16
2022-09-17T14:41:46.803Z,99984.69
2022-09-17T14:44:19.486Z,99975.00
2022-09-17T14:46:53.803Z,99975.81
2022-09-17T14:49:24.526Z,99958.25
2022-09-17T14:51:53.599Z,99955.63
2022-09-17T14:54:24.827Z,99960.91
2022-09-17T14:57:03.105Z,99947.88
2022-09-17T14:59:52.246Z,99953.38
2022-09-17T15:02:30.218Z,99950.28
2022-09-17T15:04:58.819Z,99948.88
2022-09-17T15:07:28.031Z,99951.81
2022-09-17T15:10:07.692Z,99952.03
2022-09-17T15:12:39.355Z,99943.44
2022-09-17T15:15:15.338Z,99941.91
2022-09-17T15:17:43.804Z,99943.78
2022-09-17T15:20:19.119Z,99943.94
2022-09-17T15:22:54.944Z,99943.13
2022-09-17T15:25:26.328Z,99939.69
2022-09-17T15:27:58.400Z,99942.44
2022-09-17T15:30:27.134Z,99950.41
2022-09-17T15:32:57.734Z,99952.16
2022-09-17T15:35:29.207Z,99955.66
2022-09-17T15:40:48.417Z,99945.91
2022-09-17T15:43:24.704Z,99946.84
2022-09-17T15:45:53.000Z,99954.78
2022-09-17T15:48:37.412Z,99946.00
2022-09-17T15:51:07.879Z,99951.31
2022-09-17T15:53:38.331Z,99948.69
2022-09-17T15:56:10.981Z,99957.50
2022-09-17T15:58:55.926Z,99954.84
2022-09-17T16:01:39.141Z,99956.59
2022-09-17T16:04:22.463Z,99951.25
2022-09-17T16:06:55.192Z,99959.16
2022-09-17T16:09:46.740Z,99952.03
2022-09-17T16:12:17.143Z,99953.75
2022-09-17T16:14:52.299Z,99956.31
2022-09-17T16:17:32.859Z,99971.19
2022-09-17T16:20:06.016Z,99976.44
2022-09-17T16:22:34.776Z,99979.78
2022-09-17T16:25:03.221Z,99991.16
2022-09-17T16:27:35.767Z,100010.47
2022-09-17T16:30:09.337Z,100005.09
2022-09-17T16:32:37.650Z,100003.31
2022-09-17T16:35:06.821Z,100005.91
2022-09-17T16:37:35.120Z,100005.03
2022-09-17T16:40:03.547Z,100006.75
2022-09-17T16:42:32.328Z,100009.28
2022-09-17T16:45:03.274Z,100011.84
2022-09-17T16:47:38.013Z,100013.53
2022-09-17T16:50:07.981Z,100002.03
2022-09-17T16:52:36.631Z,100009.88
2022-09-17T16:55:06.552Z,100009.78
2022-09-17T16:57:35.551Z,100010.59
2022-09-17T17:00:06.023Z,100009.66
2022-09-17T17:02:34.386Z,100008.69
2022-09-17T17:05:04.301Z,100011.22
2022-09-17T17:07:32.888Z,100011.13
2022-09-17T17:10:02.022Z,100007.53
2022-09-17T17:12:31.011Z,100010.06
2022-09-17T17:14:59.263Z,100010.00
2022-09-17T17:17:27.725Z,100012.56
2022-09-17T17:19:56.142Z,100012.47
2022-09-17T17:22:26.780Z,100010.69
2022-09-17T17:24:55.248Z,100009.75
2022-09-17T17:27:23.546Z,100009.63
2022-09-17T17:29:51.868Z,100019.19
2022-09-17T17:32:20.127Z,100012.06
2022-09-17T17:34:50.084Z,100018.97
2022-09-17T17:37:18.602Z,100015.41
2022-09-17T17:39:48.209Z,100018.84
2022-09-17T17:42:16.639Z,100019.63
2022-09-17T17:44:44.872Z,100017.84
2022-09-17T17:47:13.535Z,100018.59
2022-09-17T17:49:41.920Z,100013.25
2022-09-17T17:52:12.268Z,100021.94
2022-09-17T17:54:40.609Z,100020.97
2022-09-17T17:57:11.304Z,100020.03
2022-09-17T17:59:39.571Z,100021.69
2022-09-17T18:02:08.145Z,100024.22
2022-09-17T18:04:38.538Z,100024.19
2022-09-17T18:07:07.662Z,100030.25
2022-09-17T18:09:36.019Z,100031.06
2022-09-17T18:12:04.407Z,100026.53
2022-09-17T18:14:34.041Z,100030.00
2022-09-17T18:17:02.439Z,100042.19
2022-09-17T18:19:30.694Z,100040.41
2022-09-17T18:21:58.937Z,100047.41
2022-09-17T18:24:27.237Z,100045.63
2022-09-17T18:26:55.487Z,100053.53
2022-09-17T18:29:23.761Z,100059.66
2022-09-17T18:31:53.759Z,100058.78
2022-09-17T18:34:22.116Z,100054.44
2022-09-17T18:36:51.463Z,100057.06
2022-09-17T18:39:57.049Z,100054.44
2022-09-17T18:42:09.506Z,100061.50
2022-09-17T18:44:37.838Z,100064.13
2022-09-17T18:47:07.676Z,100065.03
2022-09-17T18:49:35.952Z,100070.34
2022-09-17T18:52:04.280Z,100067.72
2022-09-17T18:54:32.566Z,100065.13
2022-09-17T18:57:00.941Z,100072.13
2022-09-17T18:59:29.246Z,100061.63
2022-09-17T19:01:57.585Z,100059.06
2022-09-17T19:04:28.535Z,100067.81
2022-09-17T19:06:56.804Z,100058.19
2022-09-17T19:09:25.289Z,100067.81
2022-09-17T19:11:53.558Z,100064.25
2022-09-17T19:14:21.814Z,100066.88
2022-09-17T19:16:50.080Z,100069.50
2022-09-17T19:19:18.365Z,100080.00
2022-09-17T19:21:49.948Z,100077.38
2022-09-17T19:24:18.257Z,100073.00
2022-09-17T19:26:50.807Z,100073.88
2022-09-17T19:29:19.345Z,100075.63
2022-09-17T19:31:47.658Z,100083.47
2022-09-17T19:34:16.019Z,100077.34
2022-09-17T19:36:44.326Z,100079.97
2022-09-17T19:39:13.918Z,100077.34
2022-09-17T19:41:42.180Z,100078.22
2022-09-17T19:44:10.496Z,100077.38
2022-09-17T19:46:38.832Z,100075.63
2022-09-17T19:49:08.609Z,100082.59
2022-09-17T19:51:37.672Z,100075.59
2022-09-17T19:54:06.692Z,100081.75
2022-09-17T19:56:36.345Z,100083.47
2022-09-17T19:59:04.806Z,100091.38
2022-09-17T20:01:34.819Z,100082.59
2022-09-17T20:04:03.547Z,100080.84
2022-09-17T20:06:34.616Z,100089.53
2022-09-17T20:09:03.080Z,100086.91
2022-09-17T20:11:31.471Z,100092.16
2022-09-17T20:14:06.369Z,100089.50
2022-09-17T20:16:36.548Z,100092.13
2022-09-17T20:19:06.112Z,100100.88
2022-09-17T20:21:35.090Z,100102.63
2022-09-17T20:24:06.788Z,100095.63
2022-09-17T20:26:35.506Z,100106.94
2022-09-17T20:29:05.192Z,100101.69
2022-09-17T20:31:34.209Z,100106.94
2022-09-17T20:34:03.840Z,100104.28
2022-09-17T20:36:35.500Z,100097.28
2022-09-17T20:39:17.906Z,100090.22
2022-09-17T20:41:48.009Z,100082.31
2022-09-17T20:44:18.442Z,100091.03
2022-09-17T20:46:46.727Z,100101.47
2022-09-17T20:49:15.007Z,100104.03
2022-09-17T20:51:43.330Z,100107.47
2022-09-17T20:54:11.750Z,100108.34
2022-09-17T20:56:40.235Z,100114.41
2022-09-17T20:59:15.021Z,100115.28
2022-09-17T21:01:45.831Z,100116.16
2022-09-17T21:04:16.394Z,100124.03
2022-09-17T21:06:44.960Z,100116.16
2022-09-17T21:09:16.596Z,100117.88
2022-09-17T21:11:45.750Z,100119.63
2022-09-17T21:14:15.578Z,100120.50
2022-09-17T21:16:45.983Z,100125.75
2022-09-17T21:19:15.770Z,100120.50
2022-09-17T21:21:44.076Z,100120.50
2022-09-17T21:24:12.432Z,100122.22
2022-09-17T21:26:40.740Z,100126.56
2022-09-17T21:29:09.180Z,100123.00
2022-09-17T21:31:37.866Z,100126.47
2022-09-17T21:34:09.131Z,100129.03
2022-09-17T21:36:39.086Z,100132.53
2022-09-17T21:39:11.026Z,100130.72
2022-09-17T21:41:42.504Z,100118.44
2022-09-17T21:44:12.444Z,100127.13
2022-09-17T21:46:42.417Z,100117.50
2022-09-17T21:49:13.312Z,100121.81
2022-09-17T21:51:43.119Z,100119.19
2022-09-17T21:54:13.453Z,100125.25
2022-09-17T21:56:41.882Z,100120.00
2022-09-17T21:59:13.047Z,100124.31
2022-09-17T22:01:46.001Z,100128.66
2022-09-17T22:04:17.478Z,100134.69
2022-09-17T22:06:47.307Z,100133.78
2022-09-17T22:09:19.065Z,100139.00
2022-09-17T22:11:47.659Z,100142.50
2022-09-17T22:14:19.337Z,100130.25
2022-09-17T22:16:50.511Z,100139.88
2022-09-17T22:19:21.199Z,100138.94
2022-09-17T22:21:51.218Z,100139.81
2022-09-17T22:24:20.932Z,100141.56
2022-09-17T22:26:56.603Z,100135.44
2022-09-17T22:29:26.815Z,100135.38
2022-09-17T22:31:55.253Z,100134.50
2022-09-17T22:34:25.807Z,100130.09
2022-09-17T22:36:54.069Z,100137.94
2022-09-17T22:39:22.656Z,100138.75
2022-09-17T22:41:51.030Z,100135.25
2022-09-17T22:44:20.833Z,100136.97
2022-09-17T22:46:50.763Z,100129.97
2022-09-17T22:49:20.102Z,100136.03
2022-09-17T22:51:49.902Z,100137.78
2022-09-17T22:54:19.587Z,100133.41
2022-09-17T22:56:49.122Z,100135.16
2022-09-17T22:59:18.020Z,100133.38
2022-09-17T23:01:46.452Z,100138.59
2022-09-17T23:04:14.761Z,100138.53
2022-09-17T23:06:43.031Z,100137.63
2022-09-17T23:09:14.786Z,100132.34
2022-09-17T23:11:43.051Z,100133.25
2022-09-17T23:14:13.963Z,100133.25
2022-09-17T23:16:44.313Z,100126.19
2022-09-17T23:19:13.120Z,100124.44
2022-09-17T23:21:41.533Z,100124.44
2022-09-17T23:24:19.886Z,100122.69
2022-09-17T23:26:50.157Z,100127.94
2022-09-17T23:29:18.866Z,100123.53
2022-09-17T23:31:47.145Z,100120.91
2022-09-17T23:34:15.591Z,100112.09
2022-09-17T23:36:43.952Z,100111.22
2022-09-17T23:39:13.043Z,100117.28
2022-09-17T23:41:45.352Z,100117.28
2022-09-17T23:44:16.422Z,100116.41
2022-09-17T23:46:46.613Z,100108.50
2022-09-17T23:49:16.089Z,100110.28
2022-09-17T23:51:44.694Z,100113.75
2022-09-17T23:54:13.098Z,100111.97
2022-09-17T23:56:41.387Z,100116.34
2022-09-17T23:59:10.786Z,100113.75
